Hallettsville, Texas
Current Conditions -  °F | °C
As of 1:55 PM on Thursday 30 Oct 2014 (Local Time) from K66R Reporting Station
Haze Haze  
Wind Chill: 79°   Ceiling: Unl
Heat Index: 80°   Visibility: 5mi
Dew Point: 62°   Wind: 3mph
Humidity: 56%   Direction: 360°N
Pressure: 30.08"   Gusts: NA
Location:  29.44°N, 96.94°W
Report Text: K66R 301855Z AUTO 36003KT 5SM HZ CLR 26/17 A3008 RMK AO2 T02600165
Loading
Personal Weather Stations






























Interactive Weather Map New forecast layout! Learn more

10-Day Weather Forecast

Advertisements
Track Severe Weather on mobile